De Tour Village, MI (49725)

5:54 PM EDT on June 02, 2015 (GMT -0400)
Drummond Island near St. Mary's River | | Change Station
CLOSE
Current Station
Personal Weather Station
Location: Drummond, MI
Elevation: 581 ft
Nearby Weather Stations

Elev 581 ft 46.01 °N, 83.86 °W | Updated 21 seconds ago

Clear
Clear
70.2 °F
Feels Like 76 °F
N
0.0
Wind Variable Wind from ESE
Gusts 0.0 mph

Today
High -- | Low -- °F
--% Chance of Precip.
Yesterday
High -- | Low -- °F
Precip. -- in
5:48 AM 9:19 PM
Full, 100% visible
Pressure 30.15 in
Visibility 10.0 miles
Clouds Clear
Heat Index 76 °F
Dew Point 36 °F
Humidity 29%
Rainfall 0.00 in
Snow Depth Not available.
UV 3.0 out of 12
Pollen 7.70 out of 12
Air Quality Not available.
Flu Activity Sporadic
METAR KDRM 022135Z AUTO 12006KT 10SM CLR 18/02 A3015 RMK AO2 T01770017

More Conditions Fewer Conditions

Pressure 30.15 in
Visibility 10.0 miles
Clouds Clear
Heat Index 76 °F
Dew Point 36 °F
Humidity 29%
Rainfall 0.00 in
Snow Depth Not available.
UV 3.0 out of 12
Pollen 7.70 out of 12
Air Quality Not available.
Flu Activity Sporadic
METAR KDRM 022135Z AUTO 12006KT 10SM CLR 18/02 A3015 RMK AO2 T01770017

More Conditions Fewer Conditions

Nowcast | as of 5:00 PM EDT on June 2, 2015

At 6 PM...mostly clear. Temperature 67. South winds 9 mph. At 8 PM...mostly clear. Temperature 63. South winds 8 mph. At 10 PM...mostly clear. Temperature 56. Light winds. At 12 am...mostly clear. Temperature 51. Light winds.

×

10-Day Weather Forecast

×

Almanac

Astronomy

Jun. 02, 2015 Rise Set
Actual Time
Civil Twilight
Nautical Twilight
Astronomical Twilight
Moon
Length of Visible Light
Length of Day
Tomorrow will be .
, % of the Moon is Illuminated

Today's Extremes

State Highs State Lows

Community

WunderPhotos

Upload Photos

1,826,032 photos uploaded!

WunderBlogs® & News

Nearby

Air Quality

  Air Quality AQ Index Pollutant
Not available.

Snow Depth

Station Depth Elevation

Earthquake Activity

City Distance Mag. Time & Date
Minimum magnitude displayed is 2.5.

Coastal Water Temperatures

Place Temperature

Stations

Nearby Weather Stations

Station Location Temp. Windchill Dew Point Humidity Wind Precip. Elev Updated Type